»·PEaware :: N6828K KPSP-KPMD

N6828K :: KPSP-KPMD

FLIGHT INFORMATION

Flight Status: Arrived
Operator: Privately registered:
United States
More flights under this callsign
Pilot: David W. (12455)
Aircraft: CESSNA 172 SKYHAWK
(C172)
More flights by this aircraft type
Origin: KPSP Palm Springs Intl
United States
Destination: KPMD Palmdale AF Plant 42
United States
More flights between these airports :: More routes between these airports
Route: V137
File this flight plan on PilotEdge
Remarks:
Altitude:
(Current/Filed)
5,000ft
Speed:
(Current/Filed)
90kts
Departed: 05-Oct-17 11:55 AM
Arrived: 05-Oct-17 01:41 PM
Distance/Time
Traveled:
92nm/1:45
Distance/Time
To Go:
Arrived

Flight Plot

Page will automatically refresh every two minutes.

Flight plan parsing failed; only flown route is shown


Map Options




Map Legend


Flown Route
Filed Route
Departure Airport
Arrival Airport
Navaid (VOR, NDB)
Fix

Horizontal Profiles

Position Reports

Time Latitude Longitude Heading Altitude Ground
Speed
05-Oct-17 11:38 33.825359 -116.509535 90 481ft 0kts
05-Oct-17 11:39 33.825359 -116.509535 90 481ft 0kts
05-Oct-17 11:40 33.825359 -116.509535 90 481ft 0kts
05-Oct-17 11:41 33.825359 -116.509535 90 481ft 0kts
05-Oct-17 11:42 33.825359 -116.509535 90 481ft 0kts
05-Oct-17 11:43 33.825359 -116.509535 90 481ft 0kts
05-Oct-17 11:44 33.825359 -116.509535 90 481ft 0kts
05-Oct-17 11:45 33.825359 -116.509535 90 481ft 0kts
05-Oct-17 11:46 33.825359 -116.509535 90 481ft 0kts
05-Oct-17 11:47 33.825359 -116.509535 90 481ft 0kts
05-Oct-17 11:48 33.825359 -116.509535 90 481ft 0kts
05-Oct-17 11:49 33.825359 -116.509535 90 481ft 0kts
05-Oct-17 11:50 33.825359 -116.509535 90 481ft 0kts
05-Oct-17 11:51 33.825389 -116.509115 89 481ft 10kts
05-Oct-17 11:52 33.825394 -116.506325 72 481ft 0kts
05-Oct-17 11:53 33.824498 -116.505055 139 481ft 17kts
05-Oct-17 11:54 33.821361 -116.502315 143 481ft 25kts
05-Oct-17 11:55 33.818500 -116.498983 85 481ft 11kts
05-Oct-17 11:56 33.818501 -116.498921 90 481ft 0kts
05-Oct-17 11:57 33.818501 -116.498921 90 481ft 0kts
05-Oct-17 11:58 33.819570 -116.498610 326 481ft 22kts
05-Oct-17 11:59 33.825942 -116.504670 327 745ft 69kts
05-Oct-17 12:00 33.834018 -116.513465 318 1159ft 79kts
05-Oct-17 12:01 33.842994 -116.524559 317 1649ft 83kts
05-Oct-17 12:02 33.859496 -116.545164 320 2459ft 80kts
05-Oct-17 12:03 33.868995 -116.560252 294 2779ft 81kts
05-Oct-17 12:04 33.874719 -116.573261 310 3012ft 73kts
05-Oct-17 12:05 33.881203 -116.585564 307 3193ft 75kts
05-Oct-17 12:06 33.890706 -116.595746 327 3386ft 74kts
05-Oct-17 12:07 33.900555 -116.605556 325 3610ft 74kts
05-Oct-17 12:08 33.912224 -116.612774 339 3832ft 74kts
05-Oct-17 12:09 33.924858 -116.616884 18 4089ft 72kts
05-Oct-17 12:10 33.937596 -116.611702 19 4338ft 73kts
05-Oct-17 12:11 33.950796 -116.604006 24 4704ft 75kts
05-Oct-17 12:12 33.961630 -116.611701 281 5135ft 92kts
05-Oct-17 12:13 33.966253 -116.633373 290 5583ft 94kts
05-Oct-17 12:14 33.978366 -116.653511 332 6158ft 84kts
05-Oct-17 12:15 33.990947 -116.670445 277 6687ft 91kts
05-Oct-17 12:16 33.979923 -116.693629 248 7208ft 94kts
05-Oct-17 12:17 33.976614 -116.718755 269 7713ft 89kts
05-Oct-17 12:18 33.975355 -116.744602 273 8086ft 96kts
05-Oct-17 12:19 33.974994 -116.773477 269 8503ft 98kts
05-Oct-17 12:20 33.977855 -116.802518 283 8878ft 98kts
05-Oct-17 12:21 33.983635 -116.828475 296 9230ft 97kts
05-Oct-17 12:22 33.992779 -116.852632 295 9574ft 96kts
05-Oct-17 12:23 33.994765 -116.880512 277 9898ft 99kts
05-Oct-17 12:24 34.000959 -116.900920 305 9807ft 115kts
05-Oct-17 12:25 34.009809 -116.916348 313 9921ft 109kts
05-Oct-17 12:26 34.021093 -116.928010 328 9723ft 104kts
05-Oct-17 12:27 34.032062 -116.936604 332 9785ft 92kts
05-Oct-17 12:28 34.044204 -116.945282 330 9983ft 93kts
05-Oct-17 12:29 34.056158 -116.955524 326 10215ft 90kts
05-Oct-17 12:30 34.066317 -116.967609 317 10395ft 93kts
05-Oct-17 12:31 34.076815 -116.979136 332 10555ft 93kts
05-Oct-17 12:32 34.089228 -116.987350 337 10738ft 92kts
05-Oct-17 12:33 34.101532 -116.992053 353 10905ft 90kts
05-Oct-17 12:34 34.112162 -116.991826 12 11022ft 90kts
05-Oct-17 12:35 34.128594 -116.993031 340 11238ft 91kts
05-Oct-17 12:36 34.138643 -116.999301 334 11268ft 100kts
05-Oct-17 12:37 34.152556 -117.009831 322 11361ft 102kts
05-Oct-17 12:38 34.160234 -117.019926 315 11424ft 102kts
05-Oct-17 12:39 34.167091 -117.034554 295 11498ft 103kts
05-Oct-17 12:40 34.172507 -117.049430 296 11518ft 107kts
05-Oct-17 12:41 34.181107 -117.071697 304 11620ft 104kts
05-Oct-17 12:42 34.190491 -117.090169 305 11657ft 105kts
05-Oct-17 12:43 34.202129 -117.112189 303 11734ft 106kts
05-Oct-17 12:44 34.212624 -117.136458 302 11796ft 107kts
05-Oct-17 12:45 34.223545 -117.157928 309 11508ft 95kts
05-Oct-17 12:46 34.233936 -117.173789 312 11186ft 96kts
05-Oct-17 12:47 34.242749 -117.189962 310 11089ft 93kts
05-Oct-17 12:48 34.253670 -117.206879 310 10936ft 93kts
05-Oct-17 12:49 34.262545 -117.223907 301 10810ft 93kts
05-Oct-17 12:50 34.272666 -117.252759 289 10599ft 95kts
05-Oct-17 12:51 34.280837 -117.276440 312 10444ft 90kts
05-Oct-17 12:52 34.286202 -117.300034 281 10329ft 91kts
05-Oct-17 12:53 34.292457 -117.322846 303 10173ft 94kts
05-Oct-17 12:54 34.303473 -117.344266 307 10407ft 87kts
05-Oct-17 12:55 34.312263 -117.366929 290 10668ft 89kts
05-Oct-17 12:56 34.323534 -117.398995 312 10874ft 93kts
05-Oct-17 12:57 34.346863 -117.431914 315 11238ft 93kts
05-Oct-17 12:58 34.353284 -117.442487 309 11364ft 92kts
05-Oct-17 12:59 34.360115 -117.459367 294 11500ft 94kts
05-Oct-17 13:00 34.364914 -117.476695 292 11623ft 94kts
05-Oct-17 13:01 34.370585 -117.502582 287 11582ft 104kts
05-Oct-17 13:02 34.377775 -117.532700 292 11536ft 104kts
05-Oct-17 13:03 34.384980 -117.560000 289 11288ft 106kts
05-Oct-17 13:04 34.390797 -117.584352 288 11011ft 97kts
05-Oct-17 13:05 34.402032 -117.605915 307 10246ft 100kts
05-Oct-17 13:06 34.415510 -117.620052 320 9609ft 99kts
05-Oct-17 13:07 34.429348 -117.630018 325 9069ft 89kts
05-Oct-17 13:08 34.442807 -117.637554 333 8504ft 89kts
05-Oct-17 13:09 34.455557 -117.647189 321 7931ft 87kts
05-Oct-17 13:10 34.465197 -117.657314 301 7552ft 75kts
05-Oct-17 13:11 34.467702 -117.672636 279 7152ft 71kts
05-Oct-17 13:12 34.468944 -117.686520 288 6857ft 68kts
05-Oct-17 13:13 34.472020 -117.701597 292 6441ft 75kts
05-Oct-17 13:14 34.476034 -117.717424 293 6034ft 75kts
05-Oct-17 13:15 34.480923 -117.732311 299 5649ft 76kts
05-Oct-17 13:16 34.486078 -117.747637 291 5403ft 76kts
05-Oct-17 13:17 34.490180 -117.763787 295 5104ft 77kts
05-Oct-17 13:18 34.496173 -117.778578 300 4971ft 76kts
05-Oct-17 13:19 34.502296 -117.793566 308 5025ft 79kts
05-Oct-17 13:20 34.511376 -117.805869 303 5313ft 73kts
05-Oct-17 13:21 34.516064 -117.827628 281 5690ft 85kts
05-Oct-17 13:22 34.528453 -117.853946 308 6304ft 85kts
05-Oct-17 13:23 34.540050 -117.870401 319 6670ft 87kts
05-Oct-17 13:24 34.551642 -117.882368 316 6840ft 88kts
05-Oct-17 13:25 34.561635 -117.897321 298 6796ft 90kts
05-Oct-17 13:26 34.569849 -117.913897 321 6764ft 90kts
05-Oct-17 13:27 34.583120 -117.923654 334 6725ft 92kts
05-Oct-17 13:28 34.600644 -117.926877 354 6492ft 93kts
05-Oct-17 13:29 34.620353 -117.926182 3 6211ft 94kts
05-Oct-17 13:30 34.642304 -117.922156 359 5910ft 93kts
05-Oct-17 13:31 34.653961 -117.934166 279 5452ft 90kts
05-Oct-17 13:32 34.651723 -117.961596 263 4928ft 90kts
05-Oct-17 13:33 34.648911 -117.985703 267 4539ft 81kts
05-Oct-17 13:34 34.649928 -118.003265 275 4248ft 68kts
05-Oct-17 13:35 34.651072 -118.020309 269 3834ft 72kts
05-Oct-17 13:36 34.650694 -118.034708 263 3495ft 64kts
05-Oct-17 13:37 34.646661 -118.050690 249 3161ft 62kts
05-Oct-17 13:38 34.639480 -118.063875 241 3259ft 53kts
05-Oct-17 13:39 34.635287 -118.077247 258 3502ft 49kts
05-Oct-17 13:40 34.626503 -118.092655 242 3641ft 69kts
05-Oct-17 13:41 34.620161 -118.110640 255 3597ft 57kts
05-Oct-17 13:42 34.609367 -118.116242 149 3205ft 71kts
05-Oct-17 13:43 34.612724 -118.097148 39 2778ft 76kts
05-Oct-17 13:44 34.621031 -118.085430 53 2547ft 58kts
05-Oct-17 13:45 34.624242 -118.082326 351 2547ft 0kts
05-Oct-17 13:46 34.624242 -118.082326 351 2547ft 0kts
05-Oct-17 13:47 34.624242 -118.082326 351 2547ft 0kts
05-Oct-17 13:48 34.624242 -118.082326 351 2547ft 0kts
05-Oct-17 13:49 34.624242 -118.082326 351 2547ft 0kts
05-Oct-17 13:50 34.624242 -118.082326 351 2547ft 0kts
05-Oct-17 13:51 34.624242 -118.082326 351 2547ft 0kts
05-Oct-17 13:52 34.624242 -118.082326 351 2547ft 0kts
05-Oct-17 13:53 34.624242 -118.082326 351 2547ft 0kts
05-Oct-17 13:54 34.624242 -118.082326 351 2547ft 0kts
05-Oct-17 13:55 34.624242 -118.082326 351 2547ft 0kts
05-Oct-17 13:56 34.624242 -118.082326 351 2547ft 0kts
05-Oct-17 13:57 34.624242 -118.082326 351 2547ft 0kts
05-Oct-17 13:58 34.624242 -118.082326 351 2547ft 0kts
05-Oct-17 13:59 34.624242 -118.082326 351 2547ft 0kts

Navigation Log

Ident Type
Flight plan parsing failed, navigation log unavailable